All Spectrum Aviation - Van Nuys Airport - KVNY

HOME

Condor Squadron KVNY Webcam

Visit our Electronics Store

Condor Squadron Webcam - Van Nuys Airport - KVNY
Picture taken: Mon, 21 Sep 2020 04:32:41 -0700
YouTube Channel!    Latest Timelapse Movie    Full Size Image    Regular Size Image    

2020/09/21 10:51 KVNY 211051Z AUTO 15003KT 6SM BR CLR 17/14 A2990 RMK AO2 SLP114 T01670144

HOME

Condor Squadron KVNY Webcam

Visit our Electronics Store